Time;durP1;ratioP1;P1;durP2;ratioP2;P2;SDS_P1;SDS_P2;PMS_P1;PMS_P2;Temp;Humidity;BMP_temperature;BMP_pressure;BME280_temperature;BME280_humidity;BME280_pressure;Samples;Min_cycle;Max_cycle;Signal;HPM_P1;HPM_P2
2022/05/09 00:00:13;;;;;;;16.65;15.75;;;;;;;;;;5063413;28;20551;-67
2022/05/09 00:02:39;;;;;;;18.85;17.85;;;;;;;;;;5061736;28;20040;-67
2022/05/09 00:05:07;;;;;;;16.48;15.55;;;;;;;;;;5065101;28;20085;-67
2022/05/09 00:07:33;;;;;;;15.07;14.23;;;;;;;;;;5062957;28;20025;-67
2022/05/09 00:09:58;;;;;;;15.85;14.95;;;;;;;;;;5065264;28;20029;-67
2022/05/09 00:12:24;;;;;;;13.30;12.38;;;;;;;;;;5065476;28;20037;-67
2022/05/09 00:14:49;;;;;;;13.13;12.32;;;;;;;;;;5063939;28;20059;-67
2022/05/09 00:17:15;;;;;;;15.50;14.50;;;;;;;;;;5063957;28;20044;-67
2022/05/09 00:19:40;;;;;;;17.75;16.75;;;;;;;;;;5064683;28;20020;-67
2022/05/09 00:22:06;;;;;;;15.15;14.10;;;;;;;;;;5065155;28;20093;-67
2022/05/09 00:24:32;;;;;;;13.90;13.10;;;;;;;;;;5065356;28;20037;-67
2022/05/09 00:26:57;;;;;;;12.52;11.82;;;;;;;;;;5064238;28;20035;-67
2022/05/09 00:29:24;;;;;;;13.65;12.85;;;;;;;;;;5065642;28;20032;-67
2022/05/09 00:31:56;;;;;;;13.68;12.88;;;;;;;;;;5062274;28;20680;-67
2022/05/09 00:34:21;;;;;;;14.15;13.35;;;;;;;;;;5063911;28;20505;-67
2022/05/09 00:36:48;;;;;;;14.35;13.55;;;;;;;;;;5063394;28;20119;-67
2022/05/09 00:39:15;;;;;;;13.05;12.25;;;;;;;;;;5065240;28;20028;-67
2022/05/09 00:41:42;;;;;;;13.27;12.48;;;;;;;;;;5063660;28;20033;-68
2022/05/09 00:44:12;;;;;;;10.98;10.27;;;;;;;;;;5063377;28;20487;-68
2022/05/09 00:46:40;;;;;;;11.85;11.15;;;;;;;;;;5064916;28;20433;-67
2022/05/09 00:49:13;;;;;;;15.88;14.80;;;;;;;;;;5064075;28;20608;-68
2022/05/09 00:51:39;;;;;;;14.57;13.77;;;;;;;;;;5064298;28;20045;-68
2022/05/09 00:54:06;;;;;;;14.60;13.75;;;;;;;;;;5063215;28;20021;-67
2022/05/09 00:56:46;;;;;;;11.85;11.15;;;;;;;;;;5063255;28;20032;-67
2022/05/09 00:59:15;;;;;;;12.33;11.47;;;;;;;;;;5063975;28;20040;-68
2022/05/09 01:01:41;;;;;;;9.93;9.23;;;;;;;;;;5062566;28;20033;-68
2022/05/09 01:04:12;;;;;;;9.70;9.10;;;;;;;;;;5062656;28;20170;-68
2022/05/09 01:06:38;;;;;;;11.52;10.82;;;;;;;;;;5064173;28;20038;-68
2022/05/09 01:09:07;;;;;;;11.02;10.32;;;;;;;;;;5065184;28;20032;-68
2022/05/09 01:11:34;;;;;;;10.35;9.75;;;;;;;;;;5064626;28;20025;-68
2022/05/09 01:14:08;;;;;;;10.20;9.55;;;;;;;;;;5055955;28;20036;-68
2022/05/09 01:16:34;;;;;;;9.32;8.73;;;;;;;;;;5064074;28;20338;-68
2022/05/09 01:19:06;;;;;;;11.45;10.75;;;;;;;;;;5063461;28;20036;-68
2022/05/09 01:21:33;;;;;;;11.27;10.57;;;;;;;;;;5064311;28;20048;-68
2022/05/09 01:24:00;;;;;;;10.13;9.52;;;;;;;;;;5062400;28;20029;-69
2022/05/09 01:26:25;;;;;;;10.43;9.82;;;;;;;;;;5064133;28;20028;-69
2022/05/09 01:28:51;;;;;;;11.07;10.38;;;;;;;;;;5062968;28;20524;-69
2022/05/09 01:31:18;;;;;;;9.95;9.35;;;;;;;;;;5064010;28;20098;-69
2022/05/09 01:33:49;;;;;;;9.20;8.60;;;;;;;;;;5064118;28;20029;-69
2022/05/09 01:36:19;;;;;;;;;;;;;;;;;;5063458;28;20049;-69
2022/05/09 01:38:56;;;;;;;9.80;9.20;;;;;;;;;;5062672;28;19923;-69
2022/05/09 01:41:23;;;;;;;9.23;8.63;;;;;;;;;;5064194;28;20040;-69
2022/05/09 01:43:50;;;;;;;8.32;7.78;;;;;;;;;;5063130;28;20038;-68
2022/05/09 01:46:25;;;;;;;9.35;8.75;;;;;;;;;;5063795;28;20042;-69
2022/05/09 01:51:36;;;;;;;8.40;7.90;;;;;;;;;;5062463;28;20114;-69
2022/05/09 01:54:02;;;;;;;8.38;7.82;;;;;;;;;;5063402;28;20033;-69
2022/05/09 01:56:31;;;;;;;7.60;7.10;;;;;;;;;;5064008;28;20089;-69
2022/05/09 01:58:57;;;;;;;7.18;6.68;;;;;;;;;;5063149;28;20039;-69
2022/05/09 02:01:26;;;;;;;7.20;6.70;;;;;;;;;;5064152;28;20079;-69
2022/05/09 02:03:52;;;;;;;8.23;7.30;;;;;;;;;;5062881;28;20107;-69
2022/05/09 02:06:17;;;;;;;7.47;6.97;;;;;;;;;;5061117;28;20111;-68
2022/05/09 02:08:43;;;;;;;6.65;6.15;;;;;;;;;;5063507;28;20181;-69
2022/05/09 02:11:09;;;;;;;6.78;6.28;;;;;;;;;;5058411;28;20436;-69
2022/05/09 02:13:35;;;;;;;6.15;5.75;;;;;;;;;;5061888;28;20115;-69
2022/05/09 02:16:01;;;;;;;6.95;6.45;;;;;;;;;;5062936;28;20036;-68
2022/05/09 02:18:26;;;;;;;5.72;5.32;;;;;;;;;;5058143;28;20111;-68
2022/05/09 02:20:52;;;;;;;6.75;6.25;;;;;;;;;;5063519;28;20256;-69
2022/05/09 02:23:17;;;;;;;5.72;5.32;;;;;;;;;;5064037;28;20032;-69
2022/05/09 02:25:45;;;;;;;6.57;6.07;;;;;;;;;;5060061;28;20501;-69
2022/05/09 02:28:12;;;;;;;5.90;5.50;;;;;;;;;;5063863;28;20052;-69
2022/05/09 02:30:38;;;;;;;5.78;5.28;;;;;;;;;;5062865;28;20024;-69
2022/05/09 02:33:05;;;;;;;4.80;4.40;;;;;;;;;;5062059;28;20165;-69
2022/05/09 02:35:30;;;;;;;12.18;5.68;;;;;;;;;;5060383;28;20107;-69
2022/05/09 02:37:56;;;;;;;5.63;5.22;;;;;;;;;;5061239;28;20246;-69
2022/05/09 02:40:24;;;;;;;6.03;5.63;;;;;;;;;;5062361;28;20101;-68
2022/05/09 02:42:50;;;;;;;6.25;5.85;;;;;;;;;;5061294;28;20410;-69
2022/05/09 02:45:15;;;;;;;5.45;5.05;;;;;;;;;;5061152;28;20036;-68
2022/05/09 02:47:41;;;;;;;6.20;5.72;;;;;;;;;;5063386;28;20028;-68
2022/05/09 02:50:08;;;;;;;6.10;5.60;;;;;;;;;;5060045;28;20166;-68
2022/05/09 02:52:37;;;;;;;5.82;5.43;;;;;;;;;;5059990;28;20048;-68
2022/05/09 02:55:07;;;;;;;5.50;5.10;;;;;;;;;;5061950;28;20381;-68
2022/05/09 02:57:34;;;;;;;6.10;5.60;;;;;;;;;;5066199;28;20110;-68
2022/05/09 02:59:59;;;;;;;6.25;5.75;;;;;;;;;;5065012;28;20040;-68
2022/05/09 03:02:25;;;;;;;5.25;4.85;;;;;;;;;;5065123;28;20044;-68
2022/05/09 03:04:51;;;;;;;5.75;5.32;;;;;;;;;;5067080;28;20446;-68
2022/05/09 03:07:18;;;;;;;4.90;4.50;;;;;;;;;;5067231;28;20123;-68
2022/05/09 03:09:47;;;;;;;5.40;5.00;;;;;;;;;;5068260;28;20094;-68
2022/05/09 03:12:13;;;;;;;5.57;5.18;;;;;;;;;;5084758;28;20119;-68
2022/05/09 03:14:39;;;;;;;5.03;4.63;;;;;;;;;;5065514;28;20036;-67
2022/05/09 03:17:06;;;;;;;5.70;5.20;;;;;;;;;;5068594;28;20033;-68
2022/05/09 03:19:33;;;;;;;5.25;4.85;;;;;;;;;;5067152;28;20129;-67
2022/05/09 03:21:59;;;;;;;5.63;5.22;;;;;;;;;;5066167;28;20028;-67
2022/05/09 03:24:24;;;;;;;5.68;5.28;;;;;;;;;;5084190;28;20036;-67
2022/05/09 03:26:50;;;;;;;5.78;5.38;;;;;;;;;;5064686;28;20086;-68
2022/05/09 03:29:18;;;;;;;5.88;5.47;;;;;;;;;;5064287;28;20343;-67
2022/05/09 03:31:46;;;;;;;5.38;4.97;;;;;;;;;;5065495;28;20040;-67
2022/05/09 03:34:12;;;;;;;5.30;4.90;;;;;;;;;;5066685;28;20135;-67
2022/05/09 03:36:38;;;;;;;5.80;5.40;;;;;;;;;;5063490;28;20122;-68
2022/05/09 03:39:04;;;;;;;5.95;5.53;;;;;;;;;;5065202;28;20462;-67
2022/05/09 03:41:30;;;;;;;6.05;5.65;;;;;;;;;;5065799;28;20110;-68
2022/05/09 03:43:55;;;;;;;5.85;5.45;;;;;;;;;;5064944;28;20036;-68
2022/05/09 03:46:21;;;;;;;5.30;4.90;;;;;;;;;;5064714;28;20046;-67
2022/05/09 03:48:46;;;;;;;6.07;5.57;;;;;;;;;;5066422;28;20068;-67
2022/05/09 03:51:11;;;;;;;7.03;5.55;;;;;;;;;;5063487;28;20047;-67
2022/05/09 03:53:37;;;;;;;5.60;5.20;;;;;;;;;;5064323;28;20057;-68
2022/05/09 03:56:03;;;;;;;6.68;6.18;;;;;;;;;;5062290;28;20047;-68
2022/05/09 03:58:29;;;;;;;6.13;5.63;;;;;;;;;;5062660;28;20881;-68
2022/05/09 04:00:55;;;;;;;5.80;5.40;;;;;;;;;;5062996;28;20040;-68
2022/05/09 04:03:20;;;;;;;5.63;5.22;;;;;;;;;;5061987;28;20469;-69
2022/05/09 04:05:46;;;;;;;6.22;5.80;;;;;;;;;;5062376;28;20028;-68
2022/05/09 04:08:20;;;;;;;5.40;5.00;;;;;;;;;;5062397;28;20527;-68
2022/05/09 04:10:46;;;;;;;6.05;5.65;;;;;;;;;;5057521;28;20043;-68
2022/05/09 04:13:12;;;;;;;7.22;6.05;;;;;;;;;;5063961;28;20037;-68
2022/05/09 04:18:26;;;;;;;7.47;6.97;;;;;;;;;;5062882;28;20430;-67
2022/05/09 04:20:52;;;;;;;6.60;6.10;;;;;;;;;;5062214;28;20032;-67
2022/05/09 04:23:18;;;;;;;6.18;5.68;;;;;;;;;;5064561;28;20492;-68
2022/05/09 04:25:44;;;;;;;6.72;6.22;;;;;;;;;;5063481;28;20596;-67
2022/05/09 04:28:10;;;;;;;6.97;6.47;;;;;;;;;;5064316;28;20107;-70
2022/05/09 04:30:38;;;;;;;6.95;6.45;;;;;;;;;;5062736;28;20783;-68
2022/05/09 04:33:05;;;;;;;11.10;7.20;;;;;;;;;;5062520;28;20044;-68
2022/05/09 04:35:35;;;;;;;11.77;6.32;;;;;;;;;;5062838;28;20055;-67
2022/05/09 04:38:02;;;;;;;6.97;6.45;;;;;;;;;;5062905;28;20105;-68
2022/05/09 04:40:30;;;;;;;6.45;6.03;;;;;;;;;;5063543;28;20032;-68
2022/05/09 04:42:57;;;;;;;7.13;6.63;;;;;;;;;;5061901;28;20044;-68
2022/05/09 04:45:23;;;;;;;7.55;7.05;;;;;;;;;;5063597;28;20051;-68
2022/05/09 04:47:50;;;;;;;6.72;6.22;;;;;;;;;;5062612;28;20020;-68
2022/05/09 04:50:18;;;;;;;6.40;6.00;;;;;;;;;;5059401;28;20115;-68
2022/05/09 04:52:44;;;;;;;6.70;6.20;;;;;;;;;;5061500;28;20605;-68
2022/05/09 04:55:10;;;;;;;6.68;6.18;;;;;;;;;;5060399;28;20036;-68
2022/05/09 04:57:35;;;;;;;7.10;6.60;;;;;;;;;;5061827;28;20130;-67
2022/05/09 05:00:02;;;;;;;6.53;6.05;;;;;;;;;;5063066;28;20040;-68
2022/05/09 05:02:27;;;;;;;7.22;6.72;;;;;;;;;;5055875;28;20032;-68
2022/05/09 05:04:53;;;;;;;7.68;7.18;;;;;;;;;;5062855;28;20032;-67
2022/05/09 05:07:18;;;;;;;8.13;7.38;;;;;;;;;;5062976;28;20028;-69
2022/05/09 05:09:43;;;;;;;7.60;7.10;;;;;;;;;;5062929;28;20028;-67
2022/05/09 05:12:09;;;;;;;7.57;7.07;;;;;;;;;;5062449;28;20116;-67
2022/05/09 05:14:35;;;;;;;7.50;7.00;;;;;;;;;;5062508;28;20063;-69
2022/05/09 05:17:00;;;;;;;6.65;6.15;;;;;;;;;;5060946;28;20128;-69
2022/05/09 05:19:27;;;;;;;7.38;6.88;;;;;;;;;;5059155;28;20122;-70
2022/05/09 05:21:53;;;;;;;8.07;7.57;;;;;;;;;;5061824;28;20099;-69
2022/05/09 05:24:18;;;;;;;7.72;7.13;;;;;;;;;;5063059;28;20033;-69
2022/05/09 05:26:44;;;;;;;7.25;6.75;;;;;;;;;;5062340;28;20377;-69
2022/05/09 05:29:09;;;;;;;7.88;7.28;;;;;;;;;;5062975;28;20040;-69
2022/05/09 05:31:35;;;;;;;8.00;7.40;;;;;;;;;;5060793;28;20195;-69
2022/05/09 05:34:01;;;;;;;8.40;7.85;;;;;;;;;;5061807;28;20040;-69
2022/05/09 05:36:27;;;;;;;7.93;7.43;;;;;;;;;;5061781;28;20039;-69
2022/05/09 05:38:52;;;;;;;7.43;6.93;;;;;;;;;;5043192;28;20139;-69
2022/05/09 05:41:19;;;;;;;7.70;7.20;;;;;;;;;;5061322;28;20127;-69
2022/05/09 05:43:44;;;;;;;7.97;7.47;;;;;;;;;;5062457;28;20036;-69
2022/05/09 05:46:10;;;;;;;7.15;6.65;;;;;;;;;;5061427;28;20530;-69
2022/05/09 05:48:36;;;;;;;8.82;8.23;;;;;;;;;;5061471;28;20748;-68
2022/05/09 05:51:01;;;;;;;6.93;6.43;;;;;;;;;;5061757;28;20135;-69
2022/05/09 05:53:27;;;;;;;6.78;6.28;;;;;;;;;;5061392;28;20032;-69
2022/05/09 05:55:53;;;;;;;7.47;6.97;;;;;;;;;;5062253;28;20032;-69
2022/05/09 05:58:18;;;;;;;7.05;6.55;;;;;;;;;;5061741;28;20529;-69
2022/05/09 06:00:43;;;;;;;6.55;6.13;;;;;;;;;;5062603;28;20534;-68
2022/05/09 06:03:09;;;;;;;6.30;5.80;;;;;;;;;;5061490;28;20524;-69
2022/05/09 06:05:34;;;;;;;7.07;6.57;;;;;;;;;;5061687;28;20058;-68
2022/05/09 06:08:00;;;;;;;6.38;5.88;;;;;;;;;;5061907;28;20088;-69
2022/05/09 06:10:26;;;;;;;6.13;5.72;;;;;;;;;;5061640;28;20036;-67
2022/05/09 06:12:53;;;;;;;6.93;6.43;;;;;;;;;;5061224;28;20089;-66
2022/05/09 06:15:24;;;;;;;8.02;7.43;;;;;;;;;;5061402;28;20056;-67
2022/05/09 06:17:51;;;;;;;7.60;7.00;;;;;;;;;;5061559;28;20117;-66
2022/05/09 06:20:18;;;;;;;7.40;6.80;;;;;;;;;;5060857;28;20043;-67
2022/05/09 06:22:44;;;;;;;9.13;8.52;;;;;;;;;;5061003;28;20136;-67
2022/05/09 06:25:12;;;;;;;9.30;8.70;;;;;;;;;;5062163;28;20127;-67
2022/05/09 06:27:38;;;;;;;7.18;6.68;;;;;;;;;;5060317;28;20032;-68
2022/05/09 06:30:06;;;;;;;10.70;9.95;;;;;;;;;;5060926;28;20086;-67
2022/05/09 06:32:31;;;;;;;8.75;8.15;;;;;;;;;;5066638;28;20049;-68
2022/05/09 06:34:57;;;;;;;8.57;7.97;;;;;;;;;;5064365;28;20034;-67
2022/05/09 06:37:24;;;;;;;7.68;7.18;;;;;;;;;;5064276;28;20024;-67
2022/05/09 06:39:52;;;;;;;8.02;7.38;;;;;;;;;;5062389;28;20096;-68
2022/05/09 06:42:17;;;;;;;10.23;9.52;;;;;;;;;;5067504;28;20507;-67
2022/05/09 06:44:43;;;;;;;10.27;9.68;;;;;;;;;;5062725;28;20044;-67
2022/05/09 06:47:11;;;;;;;13.82;9.70;;;;;;;;;;5063225;28;20069;-67
2022/05/09 06:49:36;;;;;;;11.05;10.35;;;;;;;;;;5063957;28;20097;-68
2022/05/09 06:52:01;;;;;;;10.55;9.85;;;;;;;;;;5065841;28;20428;-68
2022/05/09 06:54:27;;;;;;;10.18;9.48;;;;;;;;;;5063400;28;20036;-68
2022/05/09 06:56:52;;;;;;;8.57;8.00;;;;;;;;;;5063591;28;20036;-68
2022/05/09 06:59:20;;;;;;;11.25;10.55;;;;;;;;;;5064369;28;20529;-68
2022/05/09 07:01:46;;;;;;;10.35;9.65;;;;;;;;;;5064902;28;20024;-67
2022/05/09 07:04:12;;;;;;;11.75;10.95;;;;;;;;;;5063237;28;20130;-67
2022/05/09 07:06:38;;;;;;;13.23;12.18;;;;;;;;;;5062325;28;20597;-68
2022/05/09 07:09:10;;;;;;;9.05;8.45;;;;;;;;;;5064021;28;20051;-67
2022/05/09 07:11:36;;;;;;;10.05;9.45;;;;;;;;;;5064183;28;20064;-67
2022/05/09 07:14:02;;;;;;;9.80;9.20;;;;;;;;;;5064844;28;20530;-68
2022/05/09 07:16:27;;;;;;;9.90;9.27;;;;;;;;;;5078991;28;20025;-66
2022/05/09 07:18:53;;;;;;;10.77;10.13;;;;;;;;;;5064254;28;20148;-67
2022/05/09 07:21:19;;;;;;;8.15;7.65;;;;;;;;;;5067277;28;20103;-67
2022/05/09 07:23:44;;;;;;;12.25;11.52;;;;;;;;;;5066818;28;20037;-67
2022/05/09 07:26:10;;;;;;;10.07;9.38;;;;;;;;;;5065834;28;20041;-67
2022/05/09 07:28:35;;;;;;;9.88;9.23;;;;;;;;;;5046887;28;20033;-68
2022/05/09 07:31:02;;;;;;;11.00;10.30;;;;;;;;;;5065486;28;20044;-66
2022/05/09 07:33:28;;;;;;;15.07;14.00;;;;;;;;;;5064282;28;20036;-68
2022/05/09 07:35:54;;;;;;;9.77;9.18;;;;;;;;;;5063444;28;20052;-67
2022/05/09 07:38:20;;;;;;;10.68;10.02;;;;;;;;;;5065473;28;20044;-68
2022/05/09 07:40:47;;;;;;;10.57;9.95;;;;;;;;;;5067112;28;20051;-67
2022/05/09 07:43:21;;;;;;;10.88;10.20;;;;;;;;;;5069828;28;20029;-67
2022/05/09 07:45:47;;;;;;;11.85;11.15;;;;;;;;;;5066348;28;20679;-67
2022/05/09 07:48:13;;;;;;;11.57;10.88;;;;;;;;;;5065952;28;20121;-66
2022/05/09 07:50:40;;;;;;;11.00;10.32;;;;;;;;;;5065279;28;20043;-67
2022/05/09 07:53:11;;;;;;;12.13;11.43;;;;;;;;;;5065342;28;20043;-67
2022/05/09 07:55:39;;;;;;;13.95;13.15;;;;;;;;;;5064426;28;20651;-67
2022/05/09 07:58:04;;;;;;;16.83;15.75;;;;;;;;;;5084101;28;20028;-67
2022/05/09 08:00:30;;;;;;;14.45;13.60;;;;;;;;;;5069106;28;20039;-67
2022/05/09 08:02:56;;;;;;;13.73;12.93;;;;;;;;;;5068481;28;20035;-68
2022/05/09 08:05:22;;;;;;;17.02;16.05;;;;;;;;;;5067021;28;20032;-68
2022/05/09 08:07:48;;;;;;;17.25;16.25;;;;;;;;;;5068510;28;20683;-67
2022/05/09 08:10:15;;;;;;;28.00;26.50;;;;;;;;;;5069313;28;20036;-68
2022/05/09 08:12:41;;;;;;;20.70;19.55;;;;;;;;;;5068942;28;20021;-68
2022/05/09 08:15:09;;;;;;;19.73;18.65;;;;;;;;;;5083167;28;20094;-68
2022/05/09 08:17:34;;;;;;;20.10;19.00;;;;;;;;;;5068924;28;20037;-68
2022/05/09 08:20:00;;;;;;;25.77;24.40;;;;;;;;;;5068133;28;20075;-68
2022/05/09 08:22:28;;;;;;;26.40;25.00;;;;;;;;;;5068509;28;20033;-68
2022/05/09 08:25:04;;;;;;;21.45;20.25;;;;;;;;;;5066998;28;20421;-68
2022/05/09 08:27:30;;;;;;;22.85;21.60;;;;;;;;;;5068967;28;20035;-68
2022/05/09 08:29:56;;;;;;;34.60;32.80;;;;;;;;;;5068537;28;20679;-69
2022/05/09 08:32:23;;;;;;;32.30;30.60;;;;;;;;;;5067093;28;20032;-70
2022/05/09 08:34:51;;;;;;;28.95;27.35;;;;;;;;;;5065300;28;20097;-69
2022/05/09 08:37:18;;;;;;;31.15;29.52;;;;;;;;;;5070219;28;20041;-68
2022/05/09 08:39:47;;;;;;;39.40;37.40;;;;;;;;;;5067395;28;20028;-69
2022/05/09 08:42:18;;;;;;;28.52;27.02;;;;;;;;;;5067540;28;20153;-68
2022/05/09 08:45:16;;;;;;;39.17;37.17;;;;;;;;;;5068660;28;20090;-68
2022/05/09 08:47:49;;;;;;;27.00;25.58;;;;;;;;;;5065409;28;20040;-68
2022/05/09 08:50:46;;;;;;;30.52;28.92;;;;;;;;;;5067860;28;20097;-68
2022/05/09 08:53:17;;;;;;;32.10;30.17;;;;;;;;;;5066478;28;20085;-68
2022/05/09 08:55:45;;;;;;;37.17;35.28;;;;;;;;;;5067596;28;20032;-68
2022/05/09 08:58:39;;;;;;;31.00;29.40;;;;;;;;;;5066601;28;20073;-68
2022/05/09 09:01:23;;;;;;;31.30;29.67;;;;;;;;;;5067296;28;20487;-68
2022/05/09 09:03:56;;;;;;;34.08;32.28;;;;;;;;;;5065822;28;20044;-68
2022/05/09 09:06:43;;;;;;;33.40;31.67;;;;;;;;;;5067231;28;20047;-68
2022/05/09 09:09:38;;;;;;;33.40;31.70;;;;;;;;;;5066579;28;20059;-68
2022/05/09 09:12:18;;;;;;;29.92;28.38;;;;;;;;;;5071797;28;20533;-67
2022/05/09 09:15:08;;;;;;;30.80;29.20;;;;;;;;;;5079624;28;20121;-69
2022/05/09 09:18:09;;;;;;;26.40;25.00;;;;;;;;;;5062562;28;20070;-68
2022/05/09 09:20:46;;;;;;;25.05;23.67;;;;;;;;;;5064489;28;20417;-70
2022/05/09 09:23:27;;;;;;;27.33;25.63;;;;;;;;;;5066008;28;20037;-69
2022/05/09 09:25:55;;;;;;;;;;;;;;;;;;5067625;28;20131;-69
2022/05/09 09:28:33;;;;;;;23.30;22.08;;;;;;;;;;5066796;28;19912;-69
2022/05/09 09:31:10;;;;;;;26.48;25.08;;;;;;;;;;5066552;28;20056;-68
2022/05/09 09:33:42;;;;;;;15.60;14.70;;;;;;;;;;5066779;28;20028;-68
2022/05/09 09:36:13;;;;;;;15.73;14.82;;;;;;;;;;5061677;28;20466;-69
2022/05/09 09:38:40;;;;;;;17.30;16.25;;;;;;;;;;5064283;28;20040;-68
2022/05/09 09:41:30;;;;;;;19.63;18.52;;;;;;;;;;5064074;28;20112;-68
2022/05/09 09:44:08;;;;;;;17.83;16.83;;;;;;;;;;5062749;28;20036;-67
2022/05/09 09:46:54;;;;;;;15.65;14.70;;;;;;;;;;5062911;28;20055;-68
2022/05/09 09:49:19;;;;;;;19.15;18.05;;;;;;;;;;5059302;28;20032;-68
2022/05/09 09:51:49;;;;;;;17.50;16.52;;;;;;;;;;5063590;28;20024;-68
2022/05/09 09:54:22;;;;;;;18.77;17.77;;;;;;;;;;5062695;28;20098;-68
2022/05/09 09:56:48;;;;;;;18.27;17.27;;;;;;;;;;5057739;28;20030;-68
2022/05/09 09:59:13;;;;;;;20.23;19.10;;;;;;;;;;5064176;28;20040;-68
2022/05/09 10:01:39;;;;;;;26.73;25.33;;;;;;;;;;5062895;28;20123;-69
2022/05/09 10:04:10;;;;;;;19.02;17.92;;;;;;;;;;5062001;28;20040;-69
2022/05/09 10:06:56;;;;;;;20.70;19.60;;;;;;;;;;5061232;28;20040;-68
2022/05/09 10:09:22;;;;;;;23.33;22.08;;;;;;;;;;5061810;28;20044;-68
2022/05/09 10:11:48;;;;;;;21.35;20.17;;;;;;;;;;5061828;28;20036;-68
2022/05/09 10:14:32;;;;;;;38.05;36.05;;;;;;;;;;5044710;28;20041;-68
2022/05/09 10:17:28;;;;;;;25.35;23.95;;;;;;;;;;5043906;28;20087;-68
2022/05/09 10:19:56;;;;;;;21.50;20.33;;;;;;;;;;5058447;28;20040;-68
2022/05/09 10:25:26;;;;;;;32.40;30.70;;;;;;;;;;5062584;28;20028;-67
2022/05/09 10:28:07;;;;;;;33.00;31.27;;;;;;;;;;5076591;28;20203;-68
2022/05/09 10:30:52;;;;;;;37.53;35.55;;;;;;;;;;5062432;28;20215;-67
2022/05/09 10:33:34;;;;;;;32.53;30.83;;;;;;;;;;5066055;28;20029;-69
2022/05/09 10:36:08;;;;;;;29.98;28.40;;;;;;;;;;5065182;28;20350;-69
2022/05/09 10:38:39;;;;;;;25.65;24.27;;;;;;;;;;5060730;28;20606;-68
2022/05/09 10:41:13;;;;;;;22.67;21.45;;;;;;;;;;5066771;28;20098;-68
2022/05/09 10:44:09;;;;;;;28.80;27.27;;;;;;;;;;5081616;28;20043;-68
2022/05/09 10:47:07;;;;;;;41.05;38.97;;;;;;;;;;5064128;28;20040;-69
2022/05/09 10:49:44;;;;;;;33.38;31.67;;;;;;;;;;5063047;28;20373;-68
2022/05/09 10:52:28;;;;;;;42.58;40.40;;;;;;;;;;5066272;28;20115;-68
2022/05/09 10:55:03;;;;;;;50.67;48.13;;;;;;;;;;5065737;28;20046;-68
2022/05/09 10:57:31;;;;;;;36.47;34.60;;;;;;;;;;5065388;28;20036;-68
2022/05/09 11:00:18;;;;;;;52.65;50.00;;;;;;;;;;5062431;28;20040;-69
2022/05/09 11:02:50;;;;;;;52.30;49.55;;;;;;;;;;5066395;28;20089;-68
2022/05/09 11:05:16;;;;;;;44.20;41.95;;;;;;;;;;5065196;28;20028;-70
2022/05/09 11:08:03;;;;;;;64.30;61.08;;;;;;;;;;5064609;28;20025;-69
2022/05/09 11:10:39;;;;;;;58.47;55.55;;;;;;;;;;5062332;28;20466;-70
2022/05/09 11:13:20;;;;;;;50.63;48.05;;;;;;;;;;5064968;28;20032;-68
2022/05/09 11:15:58;;;;;;;60.47;57.45;;;;;;;;;;5066228;28;20654;-70
2022/05/09 11:18:39;;;;;;;73.70;70.07;;;;;;;;;;5068244;28;20491;-68
2022/05/09 11:21:23;;;;;;;51.35;48.72;;;;;;;;;;5068973;28;20056;-68
2022/05/09 11:23:53;;;;;;;62.03;58.90;;;;;;;;;;5067760;28;20103;-68
2022/05/09 11:26:47;;;;;;;58.15;55.15;;;;;;;;;;5069243;28;20055;-68
2022/05/09 11:30:01;;;;;;;45.60;43.30;;;;;;;;;;5062694;28;20040;-69
2022/05/09 11:32:46;;;;;;;45.95;43.55;;;;;;;;;;5068361;28;20049;-69
2022/05/09 11:35:35;;;;;;;81.65;77.60;;;;;;;;;;5083919;28;20063;-67
2022/05/09 11:38:42;;;;;;;84.32;80.15;;;;;;;;;;5068133;28;20043;-67
2022/05/09 11:41:28;;;;;;;123.32;117.25;;;;;;;;;;5048896;28;20056;-68
2022/05/09 11:44:10;;;;;;;76.60;72.65;;;;;;;;;;5066536;28;20055;-69
2022/05/09 11:46:40;;;;;;;104.43;99.30;;;;;;;;;;5067760;28;20036;-67
2022/05/09 11:49:14;;;;;;;131.75;125.32;;;;;;;;;;5065349;28;20037;-68
2022/05/09 11:51:47;;;;;;;103.28;98.20;;;;;;;;;;5066133;28;20047;-68
2022/05/09 11:54:27;;;;;;;100.20;95.22;;;;;;;;;;5068652;28;20115;-69
2022/05/09 11:56:56;;;;;;;164.73;156.70;;;;;;;;;;5068904;28;20033;-69
2022/05/09 11:59:24;;;;;;;178.75;170.05;;;;;;;;;;5067161;28;20029;-70
2022/05/09 12:02:08;;;;;;;188.88;179.63;;;;;;;;;;5068501;28;20032;-68
2022/05/09 12:04:41;;;;;;;179.73;170.98;;;;;;;;;;5067474;28;20074;-70
2022/05/09 12:07:25;;;;;;;192.00;182.68;;;;;;;;;;5067090;28;20046;-68
2022/05/09 12:10:15;;;;;;;189.55;180.40;;;;;;;;;;5061551;28;20036;-70
2022/05/09 12:12:56;;;;;;;167.93;159.77;;;;;;;;;;5064499;28;20024;-69
2022/05/09 12:15:21;;;;;;;196.60;187.07;;;;;;;;;;5057421;28;20028;-68
2022/05/09 12:18:00;;;;;;;217.65;207.13;;;;;;;;;;5045763;28;20495;-68
2022/05/09 12:20:28;;;;;;;214.90;204.63;;;;;;;;;;5064445;28;20043;-68
2022/05/09 12:22:56;;;;;;;214.57;204.25;;;;;;;;;;5064958;28;20109;-68
2022/05/09 12:25:38;;;;;;;208.00;197.98;;;;;;;;;;5067981;28;20537;-66
2022/05/09 12:28:16;;;;;;;234.77;223.55;;;;;;;;;;5066587;28;20024;-68
2022/05/09 12:30:44;;;;;;;224.27;213.50;;;;;;;;;;5064152;28;20433;-69
2022/05/09 12:33:19;;;;;;;219.48;208.90;;;;;;;;;;5064283;28;20461;-68
2022/05/09 12:35:45;;;;;;;221.10;210.40;;;;;;;;;;5064068;28;20099;-68
2022/05/09 12:38:12;;;;;;;210.20;200.13;;;;;;;;;;5064696;28;20043;-67
2022/05/09 12:40:37;;;;;;;226.57;215.73;;;;;;;;;;5063763;28;20043;-67
2022/05/09 12:43:04;;;;;;;224.07;213.30;;;;;;;;;;5067355;28;20037;-68
2022/05/09 12:45:31;;;;;;;190.02;180.70;;;;;;;;;;5067625;28;20059;-67
2022/05/09 12:47:57;;;;;;;193.02;183.65;;;;;;;;;;5067209;28;20071;-69
2022/05/09 12:50:33;;;;;;;194.15;184.75;;;;;;;;;;5066188;28;20052;-67
2022/05/09 12:53:02;;;;;;;232.80;221.57;;;;;;;;;;5068088;28;20366;-68
2022/05/09 12:55:55;;;;;;;236.25;224.95;;;;;;;;;;5067836;28;20043;-69
2022/05/09 12:58:36;;;;;;;213.02;202.55;;;;;;;;;;5067328;28;20102;-68
2022/05/09 13:01:04;;;;;;;228.77;217.80;;;;;;;;;;5067475;28;20458;-68
2022/05/09 13:03:30;;;;;;;210.57;200.45;;;;;;;;;;5067678;28;20044;-67
2022/05/09 13:05:56;;;;;;;229.70;218.70;;;;;;;;;;5066312;28;20394;-68
2022/05/09 13:08:25;;;;;;;226.15;215.15;;;;;;;;;;5067303;28;20032;-67
2022/05/09 13:10:57;;;;;;;187.60;178.55;;;;;;;;;;5067304;28;20089;-68
2022/05/09 13:13:29;;;;;;;199.65;190.05;;;;;;;;;;5067303;28;20441;-67
2022/05/09 13:15:55;;;;;;;196.98;187.50;;;;;;;;;;5067358;28;20123;-67
2022/05/09 13:18:25;;;;;;;221.68;211.05;;;;;;;;;;5067213;28;20045;-68
2022/05/09 13:20:58;;;;;;;192.50;183.18;;;;;;;;;;5065992;28;20046;-68
2022/05/09 13:23:29;;;;;;;226.30;215.45;;;;;;;;;;5067348;28;20028;-68
2022/05/09 13:25:56;;;;;;;177.93;169.32;;;;;;;;;;5066772;28;20533;-67
2022/05/09 13:28:23;;;;;;;211.25;201.10;;;;;;;;;;5064872;28;20051;-67
2022/05/09 13:30:58;;;;;;;183.98;175.02;;;;;;;;;;5066285;28;20101;-67
2022/05/09 13:33:30;;;;;;;191.43;182.10;;;;;;;;;;5067785;28;20426;-67
2022/05/09 13:36:03;;;;;;;208.50;198.50;;;;;;;;;;5066073;28;20032;-68
2022/05/09 13:38:34;;;;;;;170.43;162.07;;;;;;;;;;5066440;28;20032;-67
2022/05/09 13:41:14;;;;;;;95.32;90.63;;;;;;;;;;5066534;28;20107;-67
2022/05/09 13:43:43;;;;;;;166.52;158.32;;;;;;;;;;5066583;28;20702;-67
2022/05/09 13:46:12;;;;;;;89.05;84.65;;;;;;;;;;5066317;28;20036;-67
2022/05/09 13:48:39;;;;;;;76.15;72.35;;;;;;;;;;5066955;28;20040;-67
2022/05/09 13:51:05;;;;;;;79.75;75.82;;;;;;;;;;5066676;28;20063;-67
2022/05/09 13:53:34;;;;;;;87.28;82.88;;;;;;;;;;5067065;28;20036;-67
2022/05/09 13:56:05;;;;;;;90.82;86.30;;;;;;;;;;5067085;28;20037;-67
2022/05/09 13:58:31;;;;;;;72.45;68.82;;;;;;;;;;5065835;28;20041;-67
2022/05/09 14:00:58;;;;;;;123.40;117.30;;;;;;;;;;5066187;28;20033;-67
2022/05/09 14:03:29;;;;;;;87.88;83.53;;;;;;;;;;5066244;28;20032;-67
2022/05/09 14:05:57;;;;;;;70.35;66.82;;;;;;;;;;5065018;28;20028;-67
2022/05/09 14:08:25;;;;;;;74.57;70.85;;;;;;;;;;5066443;28;20029;-66
2022/05/09 14:11:01;;;;;;;117.68;111.88;;;;;;;;;;5064882;28;20098;-67
2022/05/09 14:13:46;;;;;;;180.05;170.02;;;;;;;;;;5067400;28;20032;-68
2022/05/09 14:16:35;;;;;;;115.88;110.15;;;;;;;;;;5063245;28;20036;-67
2022/05/09 14:19:03;;;;;;;78.20;74.28;;;;;;;;;;5064938;28;20040;-66
2022/05/09 14:21:37;;;;;;;71.05;67.15;;;;;;;;;;5065766;28;20127;-67
2022/05/09 14:24:03;;;;;;;70.30;66.15;;;;;;;;;;5066083;28;20033;-67
2022/05/09 14:29:38;;;;;;;55.33;52.53;;;;;;;;;;5065945;28;20024;-68
2022/05/09 14:32:10;;;;;;;56.00;53.13;;;;;;;;;;5066525;28;20040;-67
2022/05/09 14:34:50;;;;;;;53.25;50.58;;;;;;;;;;5065850;28;20077;-67
2022/05/09 14:37:53;;;;;;;57.33;54.33;;;;;;;;;;5064616;28;20885;-67
2022/05/09 14:40:26;;;;;;;58.05;55.05;;;;;;;;;;5066594;28;20080;-67
2022/05/09 14:42:55;;;;;;;74.05;70.38;;;;;;;;;;5081836;28;20136;-67
2022/05/09 14:45:25;;;;;;;57.65;54.75;;;;;;;;;;5066194;28;20103;-67
2022/05/09 14:47:56;;;;;;;67.15;63.75;;;;;;;;;;5066140;28;20029;-67
2022/05/09 14:50:33;;;;;;;54.20;51.47;;;;;;;;;;5064334;28;20121;-67
2022/05/09 14:53:11;;;;;;;76.57;72.78;;;;;;;;;;5070440;28;20031;-67